createdAt,value
2019-04-14T00:11:30.333Z,3.28
2019-04-14T00:14:05.311Z,3.25
2019-04-14T00:16:42.369Z,3.21
2019-04-14T00:19:15.894Z,3.22
2019-04-14T00:21:50.133Z,3.17
2019-04-14T00:24:48.910Z,3.23
2019-04-14T00:27:22.192Z,3.19
2019-04-14T00:30:18.939Z,3.14
2019-04-14T00:32:58.067Z,2.89
2019-04-14T00:36:19.775Z,3.18
2019-04-14T00:38:54.270Z,3.10
2019-04-14T00:42:42.951Z,3.11
2019-04-14T00:45:52.354Z,3.07
2019-04-14T00:48:25.768Z,3.06
2019-04-14T00:51:00.485Z,3.07
2019-04-14T00:53:46.717Z,3.06
2019-04-14T00:56:19.940Z,3.06
2019-04-14T00:59:11.348Z,3.11
2019-04-14T01:01:45.908Z,3.05
2019-04-14T01:04:20.851Z,3.09
2019-04-14T01:07:13.283Z,3.06
2019-04-14T01:09:48.893Z,3.04
2019-04-14T01:12:23.623Z,3.06
2019-04-14T01:14:58.138Z,3.09
2019-04-14T01:17:43.878Z,3.12
2019-04-14T01:20:36.399Z,3.08
2019-04-14T01:23:10.614Z,3.03
2019-04-14T01:25:45.247Z,2.93
2019-04-14T01:28:18.516Z,2.92
2019-04-14T01:31:03.767Z,2.92
2019-04-14T01:33:56.083Z,2.87
2019-04-14T01:36:29.880Z,2.76
2019-04-14T01:39:04.734Z,2.65
2019-04-14T01:41:39.683Z,2.62
2019-04-14T01:44:26.324Z,2.64
2019-04-14T01:47:00.978Z,2.56
2019-04-14T01:49:35.464Z,2.53
2019-04-14T01:52:27.456Z,2.52
2019-04-14T01:55:26.592Z,2.53
2019-04-14T01:58:18.692Z,2.46
2019-04-14T02:01:14.922Z,2.43
2019-04-14T02:04:10.210Z,2.52
2019-04-14T02:06:44.098Z,2.46
2019-04-14T02:09:29.591Z,2.55
2019-04-14T02:12:21.396Z,2.53
2019-04-14T02:14:56.200Z,2.41
2019-04-14T02:17:42.123Z,2.31
2019-04-14T02:20:16.652Z,2.18
2019-04-14T02:23:04.006Z,2.12
2019-04-14T02:25:38.268Z,2.04
2019-04-14T02:28:11.903Z,2.01
2019-04-14T02:30:54.316Z,1.99
2019-04-14T02:34:17.090Z,2.01
2019-04-14T02:36:38.508Z,1.94
2019-04-14T02:39:15.877Z,1.90
2019-04-14T02:44:24.085Z,1.84
2019-04-14T02:47:12.972Z,1.74
2019-04-14T02:49:36.934Z,1.72
2019-04-14T02:52:11.932Z,1.71
2019-04-14T02:54:50.410Z,1.76
2019-04-14T02:57:28.500Z,1.78
2019-04-14T02:59:58.465Z,1.77
2019-04-14T03:05:13.254Z,1.66
2019-04-14T03:13:28.828Z,1.57
2019-04-14T03:16:01.701Z,1.60
2019-04-14T03:18:54.333Z,1.59
2019-04-14T03:22:19.810Z,1.65
2019-04-14T03:24:50.268Z,1.65
2019-04-14T03:28:04.179Z,1.71
2019-04-14T03:31:08.784Z,1.60
2019-04-14T03:38:55.032Z,1.40
2019-04-14T03:41:31.638Z,1.42
2019-04-14T03:43:46.296Z,1.41
2019-04-14T03:46:41.515Z,1.37
2019-04-14T03:49:17.815Z,1.29
2019-04-14T03:54:20.309Z,1.21
2019-04-14T03:57:04.106Z,1.14
2019-04-14T03:59:49.988Z,1.13
2019-04-14T04:02:35.911Z,1.12
2019-04-14T04:05:10.698Z,1.04
2019-04-14T04:07:45.382Z,1.09
2019-04-14T04:10:31.408Z,1.20
2019-04-14T04:13:04.626Z,1.17
2019-04-14T04:15:58.404Z,1.24
2019-04-14T04:18:45.631Z,1.25
2019-04-14T04:21:26.999Z,1.23
2019-04-14T04:24:09.137Z,1.17
2019-04-14T04:27:28.916Z,1.14
2019-04-14T04:30:08.513Z,1.06
2019-04-14T04:33:02.234Z,1.00
2019-04-14T04:36:05.297Z,0.94
2019-04-14T04:39:12.922Z,0.91
2019-04-14T04:41:47.244Z,0.80
2019-04-14T04:44:20.922Z,0.86
2019-04-14T04:46:54.881Z,0.82
2019-04-14T04:49:40.520Z,1.02
2019-04-14T04:52:27.952Z,0.98
2019-04-14T04:55:13.384Z,1.00
2019-04-14T04:57:48.155Z,0.87
2019-04-14T05:00:22.680Z,0.84
2019-04-14T05:02:57.137Z,0.77
2019-04-14T05:06:30.830Z,0.82
2019-04-14T05:09:21.680Z,0.81
2019-04-14T05:12:17.492Z,0.73
2019-04-14T05:15:38.068Z,0.76
2019-04-14T05:18:17.844Z,0.71
2019-04-14T05:20:53.103Z,0.69
2019-04-14T05:23:27.784Z,0.68
2019-04-14T05:26:02.757Z,0.70
2019-04-14T05:28:48.648Z,0.78
2019-04-14T05:31:22.943Z,0.76
2019-04-14T05:33:57.711Z,0.78
2019-04-14T05:36:31.029Z,0.80
2019-04-14T05:39:06.748Z,0.79
2019-04-14T05:41:47.999Z,0.81
2019-04-14T05:44:16.452Z,0.84
2019-04-14T05:46:51.307Z,0.84
2019-04-14T05:49:34.823Z,0.90
2019-04-14T05:51:59.655Z,0.91
2019-04-14T05:54:33.955Z,0.92
2019-04-14T05:57:26.330Z,1.00
2019-04-14T06:00:01.818Z,0.97
2019-04-14T06:02:37.741Z,1.03
2019-04-14T06:05:23.320Z,1.10
2019-04-14T06:07:56.883Z,1.07
2019-04-14T06:10:30.863Z,1.10
2019-04-14T06:13:16.578Z,1.19
2019-04-14T06:15:50.151Z,1.24
2019-04-14T06:18:24.469Z,1.34
2019-04-14T06:20:59.602Z,1.46
2019-04-14T06:23:33.510Z,1.57
2019-04-14T06:26:07.146Z,1.63
2019-04-14T06:28:42.088Z,1.77
2019-04-14T06:31:39.078Z,1.83
2019-04-14T06:34:17.270Z,1.98
2019-04-14T06:37:25.408Z,2.16
2019-04-14T06:39:59.306Z,2.31
2019-04-14T07:11:44.337Z,3.16
2019-04-14T07:14:18.247Z,3.17
2019-04-14T07:16:52.719Z,3.18
2019-04-14T07:20:02.123Z,3.30
2019-04-14T07:22:52.592Z,3.40
2019-04-14T07:25:26.440Z,3.40
2019-04-14T07:28:00.425Z,3.48
2019-04-14T07:31:01.177Z,3.51
2019-04-14T07:34:02.961Z,3.59
2019-04-14T07:36:48.752Z,3.76
2019-04-14T07:40:15.551Z,4.00
2019-04-14T07:43:02.917Z,3.60
2019-04-14T07:45:51.118Z,4.17
2019-04-14T07:48:35.833Z,4.32
2019-04-14T07:51:26.360Z,4.52
2019-04-14T07:55:02.017Z,4.81
2019-04-14T07:57:54.502Z,4.96
2019-04-14T08:01:33.300Z,5.16
2019-04-14T08:04:34.860Z,5.28
2019-04-14T08:07:08.124Z,5.33
2019-04-14T08:09:41.361Z,5.59
2019-04-14T08:12:14.254Z,5.68
2019-04-14T08:14:48.323Z,5.83
2019-04-14T08:17:52.788Z,6.05
2019-04-14T08:31:47.812Z,6.87
2019-04-14T08:34:21.432Z,6.87
2019-04-14T08:36:54.944Z,6.85
2019-04-14T08:39:28.204Z,6.82
2019-04-14T08:55:54.895Z,7.51
2019-04-14T09:09:29.277Z,7.57
2019-04-14T09:12:15.948Z,7.87
2019-04-14T09:14:56.378Z,7.95
2019-04-14T09:17:19.678Z,8.19
2019-04-14T09:19:52.984Z,8.35
2019-04-14T09:22:26.266Z,8.41
2019-04-14T09:25:00.438Z,8.40
2019-04-14T09:27:34.107Z,8.18
2019-04-14T09:30:07.893Z,8.07
2019-04-14T09:32:41.712Z,8.02
2019-04-14T10:07:13.441Z,8.53
2019-04-14T10:09:46.678Z,8.46
2019-04-14T11:03:26.770Z,7.77
2019-04-14T11:06:08.335Z,7.69
2019-04-14T11:08:42.297Z,7.64
2019-04-14T11:11:15.519Z,7.64
2019-04-14T11:13:49.523Z,7.66
2019-04-14T11:16:23.471Z,7.66
2019-04-14T11:29:53.898Z,7.69
2019-04-14T11:32:44.137Z,7.56
2019-04-14T11:37:18.085Z,7.46
2019-04-14T11:39:51.091Z,7.44
2019-04-14T11:43:07.043Z,7.58
2019-04-14T11:45:41.193Z,7.63
2019-04-14T11:59:14.417Z,7.77
2019-04-14T12:02:00.518Z,7.75
2019-04-14T12:05:12.259Z,7.75
2019-04-14T12:07:59.351Z,7.71
2019-04-14T12:10:54.463Z,7.87
2019-04-14T12:13:38.737Z,7.87
2019-04-14T12:16:13.068Z,7.84
2019-04-14T12:18:47.183Z,7.77
2019-04-14T12:21:20.795Z,7.85
2019-04-14T12:23:54.662Z,7.91
2019-04-14T12:26:49.786Z,7.87
2019-04-14T12:29:39.063Z,7.78
2019-04-14T12:32:14.988Z,7.62
2019-04-14T12:34:53.133Z,7.63
2019-04-14T12:37:27.337Z,7.69
2019-04-14T12:39:59.765Z,7.77
2019-04-14T12:42:39.997Z,7.89
2019-04-14T12:45:31.178Z,7.87
2019-04-14T12:48:13.715Z,7.85
2019-04-14T12:51:10.122Z,7.86
2019-04-14T12:53:43.511Z,7.90
2019-04-14T12:56:34.026Z,7.93
2019-04-14T12:59:26.569Z,7.18
2019-04-14T13:02:18.989Z,7.83
2019-04-14T13:04:55.191Z,7.75
2019-04-14T13:07:27.924Z,7.68
2019-04-14T13:10:01.589Z,7.67
2019-04-14T13:12:35.389Z,7.63
2019-04-14T13:15:09.168Z,7.54
2019-04-14T13:17:42.387Z,7.62
2019-04-14T13:20:15.901Z,7.64
2019-04-14T13:22:49.875Z,7.60
2019-04-14T13:25:23.515Z,7.51
2019-04-14T13:27:57.400Z,7.44
2019-04-14T13:30:44.032Z,7.58
2019-04-14T13:33:17.769Z,7.63
2019-04-14T13:35:51.290Z,7.66
2019-04-14T13:38:25.505Z,7.70
2019-04-14T13:41:15.773Z,7.57
2019-04-14T13:44:01.172Z,7.42
2019-04-14T13:46:35.293Z,7.30
2019-04-14T13:49:26.867Z,7.33
2019-04-14T13:52:00.870Z,7.32
2019-04-14T13:54:36.109Z,7.38
2019-04-14T13:57:09.785Z,7.37
2019-04-14T13:59:43.519Z,7.29
2019-04-14T14:02:17.612Z,7.28
2019-04-14T14:05:02.797Z,7.30
2019-04-14T14:07:46.445Z,7.27
2019-04-14T14:10:18.630Z,7.27
2019-04-14T14:33:53.677Z,7.15
2019-04-14T14:36:27.868Z,7.12
2019-04-14T14:39:25.227Z,7.11
2019-04-14T14:42:08.638Z,7.05
2019-04-14T14:44:47.665Z,7.04
2019-04-14T14:47:41.974Z,6.99
2019-04-14T14:50:21.056Z,6.97
2019-04-14T14:53:11.248Z,6.98
2019-04-14T14:55:34.120Z,6.96
2019-04-14T14:58:09.875Z,6.87
2019-04-14T15:00:43.543Z,6.88
2019-04-14T15:03:18.073Z,6.94
2019-04-14T15:06:21.942Z,7.01
2019-04-14T15:08:56.554Z,7.03
2019-04-14T15:11:51.524Z,7.05
2019-04-14T15:14:25.490Z,7.05
2019-04-14T15:16:59.653Z,7.07
2019-04-14T15:19:49.182Z,7.17
2019-04-14T15:22:25.215Z,7.04
2019-04-14T15:25:17.036Z,6.95
2019-04-14T15:28:06.275Z,7.05
2019-04-14T15:30:40.941Z,6.97
2019-04-14T15:33:31.157Z,6.99
2019-04-14T15:36:28.725Z,6.94
2019-04-14T15:39:02.103Z,6.93
2019-04-14T15:41:37.201Z,6.89
2019-04-14T15:44:11.485Z,6.83
2019-04-14T15:47:01.515Z,6.95
2019-04-14T15:49:36.263Z,6.86
2019-04-14T15:52:24.692Z,6.87
2019-04-14T15:54:58.375Z,6.88
2019-04-14T15:57:37.638Z,6.86
2019-04-14T16:00:56.549Z,6.90
2019-04-14T16:03:42.970Z,6.79
2019-04-14T16:06:37.258Z,6.79
2019-04-14T16:09:29.750Z,6.89
2019-04-14T16:12:24.981Z,6.99
2019-04-14T16:15:42.856Z,7.05
2019-04-14T16:18:34.743Z,7.01
2019-04-14T16:21:08.369Z,7.05
2019-04-14T16:23:50.465Z,7.04
2019-04-14T16:26:35.857Z,6.57
2019-04-14T16:29:51.966Z,7.11
2019-04-14T16:32:43.446Z,7.05
2019-04-14T16:35:41.426Z,7.10
2019-04-14T16:38:15.090Z,7.05
2019-04-14T16:40:48.423Z,7.04
2019-04-14T16:43:26.473Z,7.04
2019-04-14T16:46:20.004Z,7.08
2019-04-14T16:48:53.246Z,7.00
2019-04-14T16:51:33.434Z,7.01
2019-04-14T16:54:42.799Z,6.97
2019-04-14T16:58:01.482Z,6.97
2019-04-14T17:00:38.737Z,6.94
2019-04-14T17:03:12.518Z,7.03
2019-04-14T17:05:46.111Z,7.08
2019-04-14T17:08:19.436Z,7.09
2019-04-14T17:11:07.454Z,7.15
2019-04-14T17:13:45.858Z,7.08
2019-04-14T17:16:44.899Z,6.99
2019-04-14T17:19:23.419Z,7.03
2019-04-14T17:22:07.897Z,7.07
2019-04-14T17:25:00.680Z,7.04
2019-04-14T17:28:01.372Z,7.03
2019-04-14T17:30:42.004Z,7.06
2019-04-14T17:33:49.161Z,7.04
2019-04-14T17:36:51.287Z,7.01
2019-04-14T17:39:49.575Z,6.99
2019-04-14T17:43:07.541Z,6.96
2019-04-14T17:45:59.459Z,6.87
2019-04-14T17:48:56.809Z,6.85
2019-04-14T17:51:36.557Z,6.84
2019-04-14T17:54:41.551Z,6.78
2019-04-14T17:57:57.233Z,6.78
2019-04-14T18:01:17.808Z,6.78
2019-04-14T18:04:10.717Z,6.74
2019-04-14T18:07:01.079Z,6.71
2019-04-14T18:10:10.469Z,6.72
2019-04-14T18:13:28.876Z,6.76
2019-04-14T18:16:07.442Z,6.70
2019-04-14T18:19:05.974Z,6.71
2019-04-14T18:21:39.178Z,6.72
2019-04-14T18:24:14.024Z,6.68
2019-04-14T18:27:02.973Z,6.71
2019-04-14T18:30:03.301Z,6.69
2019-04-14T18:32:44.439Z,6.64
2019-04-14T18:35:24.503Z,6.65
2019-04-14T18:38:28.985Z,6.60
2019-04-14T18:41:28.804Z,6.62
2019-04-14T18:44:18.436Z,6.66
2019-04-14T18:47:39.424Z,6.72
2019-04-14T18:50:24.582Z,6.67
2019-04-14T18:53:01.953Z,6.66
2019-04-14T18:55:54.437Z,6.66
2019-04-14T18:59:02.221Z,6.69
2019-04-14T19:02:00.247Z,6.74
2019-04-14T19:04:50.742Z,6.49
2019-04-14T19:07:24.306Z,6.63
2019-04-14T19:09:57.898Z,6.65
2019-04-14T19:23:38.332Z,6.64
2019-04-14T19:26:12.279Z,6.59
2019-04-14T19:28:46.374Z,6.57
2019-04-14T19:31:19.783Z,6.58
2019-04-14T19:33:53.212Z,6.56
2019-04-14T19:36:28.560Z,6.58
2019-04-14T19:39:09.255Z,6.58
2019-04-14T19:41:45.693Z,6.63
2019-04-14T19:44:29.833Z,6.71
2019-04-14T19:47:20.892Z,6.70
2019-04-14T19:49:56.470Z,6.66
2019-04-14T19:52:34.476Z,6.67
2019-04-14T19:55:19.857Z,6.69
2019-04-14T19:57:44.705Z,6.69
2019-04-14T20:00:22.811Z,6.69
2019-04-14T20:03:01.035Z,6.71
2019-04-14T20:05:51.953Z,6.74
2019-04-14T20:08:45.728Z,6.76
2019-04-14T20:11:31.777Z,6.73
2019-04-14T20:14:20.687Z,6.75
2019-04-14T20:17:23.225Z,6.73
2019-04-14T20:20:27.896Z,6.74
2019-04-14T20:23:38.169Z,6.78
2019-04-14T20:26:42.859Z,6.73
2019-04-14T20:29:26.083Z,6.73
2019-04-14T20:32:02.905Z,6.66
2019-04-14T20:34:37.042Z,6.70
2019-04-14T20:37:22.673Z,6.75
2019-04-14T20:40:16.930Z,6.72
2019-04-14T20:43:02.693Z,6.72
2019-04-14T20:45:37.444Z,6.67
2019-04-14T20:48:11.376Z,6.65
2019-04-14T20:50:45.278Z,6.65
2019-04-14T20:53:19.374Z,6.64
2019-04-14T20:56:34.695Z,6.73
2019-04-14T20:59:08.861Z,6.62
2019-04-14T21:01:46.660Z,6.69
2019-04-14T21:04:38.857Z,6.69
2019-04-14T21:07:34.313Z,6.71
2019-04-14T21:10:12.856Z,6.70
2019-04-14T21:13:08.693Z,6.74
2019-04-14T21:15:53.504Z,6.72
2019-04-14T21:18:42.664Z,6.69
2019-04-14T21:21:27.950Z,6.72
2019-04-14T21:24:09.796Z,6.73
2019-04-14T21:26:55.607Z,6.73
2019-04-14T21:29:59.811Z,6.76
2019-04-14T21:32:42.820Z,6.74
2019-04-14T21:35:44.192Z,6.73
2019-04-14T21:38:36.926Z,6.71
2019-04-14T21:41:15.230Z,6.71
2019-04-14T21:43:54.949Z,6.75
2019-04-14T21:46:29.855Z,6.69
2019-04-14T21:49:05.614Z,6.72
2019-04-14T21:52:08.072Z,6.62
2019-04-14T21:54:43.922Z,6.69
2019-04-14T21:57:46.751Z,6.77
2019-04-14T22:01:34.216Z,6.81
2019-04-14T22:04:23.682Z,6.78
2019-04-14T22:06:59.138Z,6.78
2019-04-14T22:09:35.694Z,6.79
2019-04-14T22:12:10.921Z,6.81
2019-04-14T22:14:49.493Z,6.75
2019-04-14T22:17:23.209Z,6.78
2019-04-14T22:19:57.831Z,6.77
2019-04-14T22:22:31.652Z,6.78
2019-04-14T22:25:05.198Z,6.83
2019-04-14T22:27:39.391Z,6.86
2019-04-14T22:30:13.593Z,6.88
2019-04-14T22:43:27.992Z,6.82
2019-04-14T22:46:19.415Z,6.79
2019-04-14T22:48:53.321Z,6.74
2019-04-14T22:51:26.674Z,6.67
2019-04-14T22:54:00.755Z,6.72
2019-04-14T22:56:39.354Z,6.72
2019-04-14T23:10:19.011Z,6.77
